Time;durP1;ratioP1;P1;durP2;ratioP2;P2;SDS_P1;SDS_P2;PMS_P1;PMS_P2;Temp;Humidity;BMP_temperature;BMP_pressure;BME280_temperature;BME280_humidity;BME280_pressure;Samples;Min_cycle;Max_cycle;Signal;HPM_P1;HPM_P2
2023/06/01 00:01:40;;;;;;;17.70;15.73;;;;;;;21.99;88.91;98254.91;4952576;28;20055;-60
2023/06/01 00:04:09;;;;;;;23.75;17.05;;;;;;;21.95;88.85;98257.31;4957227;28;20151;-60
2023/06/01 00:06:39;;;;;;;21.35;16.60;;;;;;;21.98;89.02;98255.97;4955470;28;20044;-60
2023/06/01 00:09:09;;;;;;;22.52;17.50;;;;;;;22.02;88.95;98250.81;4955840;28;20047;-61
2023/06/01 00:11:39;;;;;;;26.33;19.25;;;;;;;21.99;88.43;98246.81;4958216;28;20051;-61
2023/06/01 00:14:08;;;;;;;28.48;20.13;;;;;;;22.00;88.34;98253.78;4957188;28;20126;-60
2023/06/01 00:16:38;;;;;;;33.72;23.50;;;;;;;21.94;88.59;98257.63;4959205;28;20612;-60
2023/06/01 00:19:07;;;;;;;32.08;23.30;;;;;;;21.99;88.76;98260.28;4956995;28;20097;-60
2023/06/01 00:21:37;;;;;;;31.10;21.75;;;;;;;21.97;88.65;98269.72;4959220;28;20050;-60
2023/06/01 00:24:07;;;;;;;33.08;23.10;;;;;;;22.01;88.60;98273.47;4951017;28;20065;-60
2023/06/01 00:26:36;;;;;;;31.02;22.50;;;;;;;22.04;88.59;98262.16;4949551;28;20134;-59
2023/06/01 00:29:06;;;;;;;33.97;22.58;;;;;;;22.08;88.56;98260.50;4949225;28;20054;-60
2023/06/01 00:31:35;;;;;;;32.55;22.30;;;;;;;22.09;88.39;98251.31;4939148;28;20066;-60
2023/06/01 00:34:07;;;;;;;32.83;22.50;;;;;;;22.04;88.32;98264.84;4956025;28;20047;-60
2023/06/01 00:36:36;;;;;;;32.08;23.42;;;;;;;22.01;88.51;98260.81;4937015;28;20054;-60
2023/06/01 00:39:06;;;;;;;30.90;23.08;;;;;;;22.03;89.10;98257.84;4937098;28;20102;-60
2023/06/01 00:41:35;;;;;;;32.67;23.10;;;;;;;22.07;88.39;98253.50;4944002;28;20463;-60
2023/06/01 00:44:05;;;;;;;34.97;22.95;;;;;;;22.00;88.38;98256.47;4947054;28;20043;-61
2023/06/01 00:46:37;;;;;;;29.85;22.75;;;;;;;22.07;88.52;98256.19;4936652;28;20051;-59
2023/06/01 00:49:07;;;;;;;35.65;23.98;;;;;;;22.11;88.39;98255.38;4940710;28;20471;-61
2023/06/01 00:51:37;;;;;;;36.17;24.80;;;;;;;22.13;88.20;98261.28;4950897;28;20051;-60
2023/06/01 00:54:08;;;;;;;35.65;24.45;;;;;;;22.14;88.21;98249.41;4931518;28;20054;-61
2023/06/01 00:56:38;;;;;;;33.53;23.33;;;;;;;22.17;88.15;98256.16;4948682;28;20051;-60
2023/06/01 00:59:11;;;;;;;37.63;24.17;;;;;;;22.16;88.28;98260.75;4948236;28;20479;-62
2023/06/01 01:01:43;;;;;;;35.05;24.30;;;;;;;22.24;88.26;98254.75;4941016;28;20117;-62
2023/06/01 01:04:14;;;;;;;35.97;25.02;;;;;;;22.31;88.15;98254.44;4948050;28;20063;-62
2023/06/01 01:07:03;;;;;;;39.00;26.50;;;;;;;22.27;87.41;98243.41;4931264;29;20455;-63
2023/06/01 01:09:51;;;;;;;40.35;27.52;;;;;;;22.26;87.44;98244.47;4938297;28;20054;-64
2023/06/01 01:12:40;;;;;;;35.25;25.45;;;;;;;22.27;87.41;98251.50;4939760;28;20050;-60
2023/06/01 01:15:32;;;;;;;40.42;27.08;;;;;;;22.25;87.01;98252.88;4937065;28;20054;-60
2023/06/01 01:18:13;;;;;;;39.78;26.77;;;;;;;22.25;87.24;98258.25;4936596;28;20050;-62
2023/06/01 01:20:48;;;;;;;42.28;28.23;;;;;;;22.21;86.77;98257.22;4936475;29;20050;-60
2023/06/01 01:23:59;;;;;;;41.55;26.75;;;;;;;22.31;87.02;98257.13;4939505;28;20047;-60
2023/06/01 01:26:55;;;;;;;42.53;28.25;;;;;;;22.30;86.25;98261.75;4929274;29;20047;-60
2023/06/01 01:29:29;;;;;;;42.97;28.65;;;;;;;22.35;86.22;98272.47;4935519;28;20046;-60
2023/06/01 01:32:00;;;;;;;42.75;28.67;;;;;;;22.42;86.26;98268.69;4938943;28;20043;-60
2023/06/01 01:34:32;;;;;;;39.70;28.98;;;;;;;22.40;85.51;98274.34;4936089;28;20527;-62
2023/06/01 01:37:02;;;;;;;39.17;29.60;;;;;;;22.35;85.32;98277.88;4936020;28;20054;-61
2023/06/01 01:39:31;;;;;;;42.55;28.63;;;;;;;22.39;85.56;98278.94;4938329;28;20054;-59
2023/06/01 01:42:00;;;;;;;41.88;28.23;;;;;;;22.43;85.06;98284.59;4947445;28;20055;-60
2023/06/01 01:44:30;;;;;;;42.75;28.88;;;;;;;22.44;84.64;98290.81;4938811;29;20486;-60
2023/06/01 01:47:31;;;;;;;41.92;29.02;;;;;;;22.45;84.21;98290.50;4939368;29;20047;-61
2023/06/01 01:50:09;;;;;;;37.50;27.88;;;;;;;22.46;84.41;98289.44;4941229;28;20055;-61
2023/06/01 01:52:42;;;;;;;39.05;28.65;;;;;;;22.49;84.81;98288.06;4937100;29;20057;-60
2023/06/01 01:55:13;;;;;;;40.42;28.80;;;;;;;22.52;84.86;98295.63;4923363;28;20053;-61
2023/06/01 01:57:44;;;;;;;36.22;27.58;;;;;;;22.52;84.38;98293.72;4941039;28;20050;-60
2023/06/01 02:00:14;;;;;;;40.92;28.88;;;;;;;22.57;84.61;98290.19;4937398;28;20043;-60
2023/06/01 02:02:46;;;;;;;40.88;28.95;;;;;;;22.73;83.93;98291.72;4938374;29;20059;-60
2023/06/01 02:05:17;;;;;;;39.25;27.50;;;;;;;23.23;82.61;98290.50;4937472;28;20051;-61
2023/06/01 02:07:46;;;;;;;38.58;26.98;;;;;;;23.82;79.79;98290.19;4944792;28;20043;-60
2023/06/01 02:10:16;;;;;;;36.50;26.95;;;;;;;24.29;77.06;98297.47;4947405;28;20490;-60
2023/06/01 02:12:45;;;;;;;33.03;25.10;;;;;;;24.60;74.07;98306.00;4928457;29;20118;-61
2023/06/01 02:15:15;;;;;;;35.47;24.98;;;;;;;24.38;74.06;98309.28;4931784;29;20059;-60
2023/06/01 02:17:44;;;;;;;34.45;24.80;;;;;;;24.68;72.93;98308.03;4935869;28;20051;-61
2023/06/01 02:20:14;;;;;;;29.80;23.45;;;;;;;24.56;74.09;98321.22;4947236;29;20113;-61
2023/06/01 02:22:44;;;;;;;31.85;23.98;;;;;;;24.57;74.44;98328.22;4931008;29;20047;-60
2023/06/01 02:25:13;;;;;;;28.95;23.83;;;;;;;24.54;73.62;98339.63;4931376;29;20066;-60
2023/06/01 02:27:42;;;;;;;34.45;24.42;;;;;;;25.19;72.30;98337.88;4944174;28;20047;-60
2023/06/01 02:30:12;;;;;;;35.55;24.58;;;;;;;25.56;69.98;98342.44;4951883;29;20051;-60
2023/06/01 02:32:44;;;;;;;30.48;23.38;;;;;;;25.47;68.82;98341.47;4961533;28;20048;-60
2023/06/01 02:35:14;;;;;;;30.77;22.42;;;;;;;25.92;68.23;98339.88;4954243;28;20129;-60
2023/06/01 02:37:45;;;;;;;30.33;23.30;;;;;;;25.53;68.52;98343.00;4950141;28;20087;-60
2023/06/01 02:40:15;;;;;;;30.15;24.90;;;;;;;25.37;69.61;98350.56;4950575;28;20138;-60
2023/06/01 02:42:44;;;;;;;28.33;22.15;;;;;;;25.62;69.19;98341.25;4935275;29;20066;-60
2023/06/01 02:45:13;;;;;;;24.05;20.52;;;;;;;25.80;66.99;98353.91;4934369;28;20066;-60
2023/06/01 02:47:44;;;;;;;26.40;19.52;;;;;;;25.80;66.32;98353.13;4953595;28;20043;-60
2023/06/01 02:50:14;;;;;;;23.45;18.95;;;;;;;26.11;66.53;98356.06;4934587;29;20043;-60
2023/06/01 02:52:48;;;;;;;25.50;20.77;;;;;;;25.93;66.35;98358.53;4941925;28;20043;-61
2023/06/01 02:55:17;;;;;;;27.95;20.42;;;;;;;25.98;65.97;98354.16;4953316;28;20043;-61
2023/06/01 02:58:14;;;;;;;27.73;21.17;;;;;;;25.68;65.29;98350.88;4948753;28;20046;-61
2023/06/01 03:01:11;;;;;;;31.58;23.17;;;;;;;25.28;66.47;98351.53;4948624;28;20046;-60
2023/06/01 03:03:42;;;;;;;31.88;23.80;;;;;;;25.31;66.77;98354.50;4943721;28;20047;-60
2023/06/01 03:06:13;;;;;;;31.25;23.13;;;;;;;25.58;66.84;98359.19;4950787;28;20054;-60
2023/06/01 03:09:01;;;;;;;31.15;24.85;;;;;;;25.81;66.52;98371.00;4953316;28;20749;-60
2023/06/01 03:11:48;;;;;;;30.20;23.85;;;;;;;26.03;66.20;98379.25;4949381;28;20054;-61
2023/06/01 03:14:31;;;;;;;27.70;22.58;;;;;;;26.60;63.12;98394.16;4930954;29;20043;-62
2023/06/01 03:17:08;;;;;;;29.17;23.25;;;;;;;26.71;63.06;98395.56;4944854;28;20047;-60
2023/06/01 03:19:38;;;;;;;33.13;23.42;;;;;;;26.36;64.59;98396.28;4932444;29;20080;-60
2023/06/01 03:22:16;;;;;;;32.33;21.92;;;;;;;26.09;64.94;98401.69;4931667;29;20122;-59
2023/06/01 03:24:50;;;;;;;27.42;20.95;;;;;;;25.70;65.12;98402.13;4931858;28;20047;-60
2023/06/01 03:27:25;;;;;;;21.13;16.00;;;;;;;25.59;65.00;98404.19;4931662;29;20043;-60
2023/06/01 03:29:54;;;;;;;29.38;12.75;;;;;;;25.62;63.29;98403.63;4934753;29;20039;-59
2023/06/01 03:32:24;;;;;;;16.77;8.82;;;;;;;25.24;59.93;98393.91;4941008;28;20051;-59
2023/06/01 03:34:56;;;;;;;12.32;8.43;;;;;;;25.40;62.88;98400.72;4934011;29;20043;-59
2023/06/01 03:37:26;;;;;;;13.93;7.28;;;;;;;25.54;62.11;98406.19;4943986;28;20051;-59
2023/06/01 03:39:55;;;;;;;9.82;6.25;;;;;;;25.90;60.61;98413.41;4952794;28;20489;-59
2023/06/01 03:42:30;;;;;;;7.45;5.50;;;;;;;26.17;58.29;98417.28;4946560;28;20493;-59
2023/06/01 03:45:01;;;;;;;12.27;6.28;;;;;;;25.72;60.87;98421.63;4942500;28;20043;-59
2023/06/01 03:47:30;;;;;;;9.63;5.85;;;;;;;25.52;61.30;98422.75;4940413;28;20054;-59
2023/06/01 03:50:01;;;;;;;11.10;6.53;;;;;;;25.57;60.24;98413.75;4960031;28;20051;-59
2023/06/01 03:52:31;;;;;;;9.48;6.57;;;;;;;25.91;60.52;98414.22;4962877;28;20055;-59
2023/06/01 03:55:07;;;;;;;19.55;6.68;;;;;;;26.20;60.89;98419.41;4950397;28;20047;-60
2023/06/01 03:58:12;;;;;;;8.35;5.32;;;;;;;26.20;60.63;98424.84;4953051;28;20066;-67
2023/06/01 04:00:43;;;;;;;10.55;4.82;;;;;;;26.24;60.66;98429.41;4945697;28;20055;-63
2023/06/01 04:03:14;;;;;;;7.00;4.40;;;;;;;26.33;60.55;98430.28;4939466;28;20071;-64
2023/06/01 04:05:49;;;;;;;10.35;4.10;;;;;;;26.31;60.08;98415.41;4942378;28;20065;-63
2023/06/01 04:08:21;;;;;;;10.80;4.43;;;;;;;26.47;60.28;98413.97;4951006;28;20051;-64
2023/06/01 04:10:50;;;;;;;8.43;4.30;;;;;;;26.34;59.02;98423.75;4950742;28;20055;-63
2023/06/01 04:13:20;;;;;;;7.10;3.80;;;;;;;26.43;58.92;98418.41;4949032;28;20078;-64
2023/06/01 04:15:50;;;;;;;6.82;3.95;;;;;;;26.52;59.08;98419.31;4933392;29;20058;-63
2023/06/01 04:18:21;;;;;;;8.10;4.43;;;;;;;26.66;58.58;98417.41;4940873;28;20077;-65
2023/06/01 04:21:00;;;;;;;9.90;4.20;;;;;;;26.74;58.56;98421.31;4945815;28;20130;-63
2023/06/01 04:23:30;;;;;;;12.10;4.00;;;;;;;26.77;58.85;98432.38;4942812;28;20467;-64
2023/06/01 04:26:00;;;;;;;9.00;4.45;;;;;;;26.98;59.62;98426.53;4943474;28;20097;-65
2023/06/01 04:28:35;;;;;;;6.35;4.45;;;;;;;27.16;59.48;98428.28;4943407;28;20138;-66
2023/06/01 04:31:05;;;;;;;14.70;5.25;;;;;;;27.11;58.39;98437.38;4947923;28;20070;-67
2023/06/01 04:33:34;;;;;;;8.75;4.80;;;;;;;26.83;57.60;98430.34;4940158;28;20043;-67
2023/06/01 04:36:04;;;;;;;7.75;4.93;;;;;;;26.58;60.44;98428.16;4957656;28;20047;-63
2023/06/01 04:38:35;;;;;;;10.10;4.93;;;;;;;26.35;60.28;98422.66;4940301;28;20170;-62
2023/06/01 04:41:05;;;;;;;7.22;4.57;;;;;;;26.38;60.69;98421.22;4966336;28;20038;-61
2023/06/01 04:43:35;;;;;;;8.13;4.55;;;;;;;26.39;60.51;98409.25;4953761;28;20043;-61
2023/06/01 04:46:05;;;;;;;6.22;4.28;;;;;;;26.51;58.68;98406.84;4931504;29;20058;-61
2023/06/01 04:48:36;;;;;;;10.30;5.28;;;;;;;26.47;57.22;98426.75;4932975;29;20065;-61
2023/06/01 04:51:07;;;;;;;9.88;4.82;;;;;;;26.63;59.99;98409.88;4932067;29;20333;-62
2023/06/01 04:53:36;;;;;;;9.43;5.00;;;;;;;26.68;60.23;98417.09;4942778;28;20378;-61
2023/06/01 04:56:05;;;;;;;10.75;4.78;;;;;;;26.66;58.54;98414.69;4932501;28;20130;-59
2023/06/01 04:58:35;;;;;;;8.20;4.10;;;;;;;26.67;59.81;98416.28;4947620;28;20051;-61
2023/06/01 05:01:06;;;;;;;8.20;4.57;;;;;;;26.74;59.63;98424.81;4946236;28;20057;-62
2023/06/01 05:03:38;;;;;;;8.98;4.53;;;;;;;26.80;59.13;98429.06;4941025;28;20043;-69
2023/06/01 05:06:07;;;;;;;11.07;4.35;;;;;;;27.01;59.16;98423.19;4933809;29;20348;-61
2023/06/01 05:08:40;;;;;;;13.25;4.45;;;;;;;27.18;57.38;98416.00;4916606;29;20399;-61
2023/06/01 05:11:10;;;;;;;;;;;;;;;27.47;58.00;98420.22;4931003;29;20077;-61
2023/06/01 05:13:40;;;;;;;8.30;4.00;;;;;;;27.64;56.75;98421.16;4952690;28;19941;-64
2023/06/01 05:16:09;;;;;;;10.88;4.32;;;;;;;27.80;56.87;98423.50;4945562;28;20059;-66
2023/06/01 05:18:40;;;;;;;8.65;4.38;;;;;;;27.93;56.10;98426.13;4942528;28;20414;-64
2023/06/01 05:21:10;;;;;;;9.32;3.95;;;;;;;28.04;55.64;98423.94;4938470;28;20050;-63
2023/06/01 05:23:39;;;;;;;11.63;4.40;;;;;;;28.34;54.70;98416.88;4945534;28;20058;-63
2023/06/01 05:26:14;;;;;;;11.10;4.95;;;;;;;28.54;53.97;98414.41;4941540;28;20061;-62
2023/06/01 05:28:52;;;;;;;;;;;;;;;28.54;54.62;98413.59;4945381;28;20047;-67
2023/06/01 05:31:22;;;;;;;14.65;5.07;;;;;;;28.45;53.96;98404.59;4941059;28;19930;-66
2023/06/01 05:33:55;;;;;;;;;;;;;;;28.62;54.11;98395.66;4942626;28;20057;-65
2023/06/01 05:36:27;;;;;;;11.07;4.88;;;;;;;28.67;55.55;98381.88;4954854;28;20032;-66
2023/06/01 05:38:57;;;;;;;11.35;4.57;;;;;;;28.46;57.82;98379.75;4929401;28;20039;-64
2023/06/01 05:41:27;;;;;;;9.18;4.60;;;;;;;28.22;55.28;98384.00;4928933;29;20201;-63
2023/06/01 05:43:57;;;;;;;11.20;5.03;;;;;;;28.26;54.61;98390.44;4934630;28;20043;-62
2023/06/01 05:46:27;;;;;;;9.75;4.50;;;;;;;28.13;55.05;98389.44;4930777;29;20487;-62
2023/06/01 05:48:57;;;;;;;13.98;4.60;;;;;;;28.07;53.40;98390.63;4920204;28;20046;-63
2023/06/01 05:51:27;;;;;;;14.65;4.72;;;;;;;27.43;52.29;98392.84;4963066;28;20185;-62
2023/06/01 05:53:57;;;;;;;14.30;4.88;;;;;;;27.86;53.56;98395.84;4951475;28;20058;-61
2023/06/01 05:56:26;;;;;;;12.50;5.35;;;;;;;27.88;54.12;98395.53;4941617;28;20054;-62
2023/06/01 05:58:58;;;;;;;13.80;5.43;;;;;;;27.72;53.83;98397.84;4938986;28;20117;-61
2023/06/01 06:01:27;;;;;;;7.97;4.45;;;;;;;28.10;55.56;98400.97;4935947;29;20047;-62
2023/06/01 06:03:57;;;;;;;11.30;4.95;;;;;;;28.28;56.51;98402.59;4941156;28;20057;-61
2023/06/01 06:06:27;;;;;;;12.45;4.95;;;;;;;28.27;56.32;98405.66;4904436;29;20043;-58
2023/06/01 06:08:56;;;;;;;11.65;5.93;;;;;;;27.98;52.95;98408.84;4945576;28;20154;-58
2023/06/01 06:11:25;;;;;;;9.10;5.25;;;;;;;27.86;56.36;98406.72;4972150;28;20121;-63
2023/06/01 06:13:55;;;;;;;7.00;4.55;;;;;;;27.76;56.96;98401.53;4950271;28;20138;-62
2023/06/01 06:16:24;;;;;;;8.23;5.22;;;;;;;27.61;57.33;98405.47;4962330;28;20078;-61
2023/06/01 06:18:54;;;;;;;8.65;4.97;;;;;;;27.70;58.77;98403.56;4950902;28;20055;-61
2023/06/01 06:21:23;;;;;;;11.18;5.82;;;;;;;27.81;58.07;98406.03;4960752;28;20161;-64
2023/06/01 06:23:58;;;;;;;12.77;5.55;;;;;;;27.75;56.63;98399.91;4963529;28;20122;-69
2023/06/01 06:26:28;;;;;;;9.20;5.30;;;;;;;27.92;57.22;98412.84;4947454;28;20051;-61
2023/06/01 06:28:58;;;;;;;7.90;5.40;;;;;;;28.10;55.67;98403.69;4962125;28;20742;-67
2023/06/01 06:31:27;;;;;;;9.38;5.55;;;;;;;28.30;51.96;98407.75;4944022;28;20531;-65
2023/06/01 06:33:57;;;;;;;13.68;5.60;;;;;;;28.47;54.62;98397.69;4963005;28;20051;-67
2023/06/01 06:36:28;;;;;;;14.60;6.53;;;;;;;28.40;50.14;98397.38;4961028;28;20924;-66
2023/06/01 06:38:58;;;;;;;8.52;5.93;;;;;;;28.76;53.52;98393.63;4962055;28;20049;-67
2023/06/01 06:41:27;;;;;;;11.30;6.38;;;;;;;29.08;54.73;98390.44;4946830;28;20043;-63
2023/06/01 06:43:57;;;;;;;11.23;6.07;;;;;;;28.63;51.54;98389.91;4962663;28;20050;-63
2023/06/01 06:46:28;;;;;;;9.05;5.75;;;;;;;28.99;54.07;98387.72;4963491;28;20527;-65
2023/06/01 06:48:58;;;;;;;12.52;6.30;;;;;;;29.03;55.57;98388.66;4954421;28;20047;-66
2023/06/01 06:51:27;;;;;;;12.77;6.43;;;;;;;28.96;54.73;98373.91;4953489;28;20058;-64
2023/06/01 06:53:58;;;;;;;8.93;5.70;;;;;;;28.99;54.45;98367.81;4940978;28;20549;-62
2023/06/01 06:56:27;;;;;;;11.43;6.55;;;;;;;29.17;54.16;98372.16;4955688;28;20054;-61
2023/06/01 06:58:56;;;;;;;14.50;6.07;;;;;;;29.14;54.43;98372.00;4962464;28;20051;-64
2023/06/01 07:01:37;;;;;;;9.93;5.40;;;;;;;29.17;55.40;98366.69;4958643;28;20047;-63
2023/06/01 07:04:09;;;;;;;11.57;6.47;;;;;;;29.10;55.14;98371.84;4958072;28;20043;-62
2023/06/01 07:06:38;;;;;;;13.05;6.50;;;;;;;29.06;54.29;98370.06;4952004;28;20058;-65
2023/06/01 07:09:09;;;;;;;13.43;5.53;;;;;;;29.09;54.05;98381.13;4954672;28;20039;-62
2023/06/01 07:11:42;;;;;;;9.52;5.63;;;;;;;29.20;52.26;98373.44;4957273;28;20747;-61
2023/06/01 07:14:12;;;;;;;13.25;5.35;;;;;;;29.36;53.67;98377.31;4950742;28;20494;-62
2023/06/01 07:16:41;;;;;;;10.57;5.60;;;;;;;29.36;54.60;98369.91;4948857;29;20055;-63
2023/06/01 07:19:11;;;;;;;15.45;5.53;;;;;;;28.99;55.16;98370.53;4947978;28;20510;-62
2023/06/01 07:21:40;;;;;;;11.07;5.50;;;;;;;28.69;55.72;98376.91;4949940;29;20480;-68
2023/06/01 07:24:10;;;;;;;12.88;5.90;;;;;;;28.51;55.71;98376.06;4950936;28;20066;-63
2023/06/01 07:26:40;;;;;;;8.77;5.38;;;;;;;28.81;55.74;98366.22;4949500;29;20058;-66
2023/06/01 07:29:09;;;;;;;8.38;5.53;;;;;;;28.91;55.29;98369.41;4949040;28;20063;-66
2023/06/01 07:31:39;;;;;;;11.98;5.50;;;;;;;29.05;54.96;98371.19;4934996;28;20597;-72
2023/06/01 07:34:08;;;;;;;12.80;6.18;;;;;;;28.94;56.33;98362.53;4938149;29;20047;-71
2023/06/01 07:36:38;;;;;;;10.05;5.45;;;;;;;28.80;55.48;98368.16;4950534;28;20114;-66
2023/06/01 07:39:08;;;;;;;10.65;5.57;;;;;;;28.78;57.63;98364.13;4950051;28;20119;-71
2023/06/01 07:41:39;;;;;;;7.28;5.10;;;;;;;28.86;56.84;98357.88;4949840;28;20055;-66
2023/06/01 07:44:09;;;;;;;10.73;6.20;;;;;;;29.06;56.91;98365.44;4955811;28;20650;-64
2023/06/01 07:46:38;;;;;;;9.18;6.40;;;;;;;29.21;55.17;98359.47;4955827;28;20078;-64
2023/06/01 07:49:13;;;;;;;12.55;6.40;;;;;;;29.37;56.82;98351.63;4957307;28;20042;-65
2023/06/01 07:51:43;;;;;;;11.95;7.32;;;;;;;29.30;52.84;98343.91;4960058;28;20051;-65
2023/06/01 07:54:13;;;;;;;17.17;7.05;;;;;;;29.24;54.06;98347.13;4957028;28;20051;-65
2023/06/01 07:56:42;;;;;;;15.90;7.55;;;;;;;28.79;53.20;98328.38;4958345;28;20113;-64
2023/06/01 07:59:12;;;;;;;13.23;7.40;;;;;;;28.73;52.23;98329.63;4957158;28;20558;-67
2023/06/01 08:01:42;;;;;;;9.02;6.50;;;;;;;28.88;54.11;98333.81;4957144;28;20050;-69
2023/06/01 08:04:11;;;;;;;10.25;7.68;;;;;;;28.77;55.20;98333.31;4959076;28;21326;-67
2023/06/01 08:06:41;;;;;;;11.88;7.65;;;;;;;28.79;55.90;98333.03;4959097;28;20039;-64
2023/06/01 08:09:10;;;;;;;12.93;8.02;;;;;;;28.69;54.37;98342.28;4961288;28;20542;-66
2023/06/01 08:11:41;;;;;;;13.98;7.30;;;;;;;28.63;56.46;98345.50;4942503;28;20051;-69
2023/06/01 08:14:11;;;;;;;12.38;7.80;;;;;;;28.62;57.54;98346.59;4941505;28;20478;-63
2023/06/01 08:16:41;;;;;;;10.45;7.30;;;;;;;28.58;51.48;98341.81;4954926;28;20078;-66
2023/06/01 08:19:11;;;;;;;10.85;6.85;;;;;;;28.55;54.46;98345.13;4948902;28;20114;-64
2023/06/01 08:21:41;;;;;;;10.63;6.78;;;;;;;28.64;53.99;98347.88;4950240;28;20059;-63
2023/06/01 08:24:11;;;;;;;11.63;7.00;;;;;;;28.83;51.56;98336.72;4941587;29;20051;-69
2023/06/01 08:26:41;;;;;;;10.95;6.40;;;;;;;28.91;53.43;98339.44;4949821;28;20059;-66
2023/06/01 08:29:11;;;;;;;10.77;6.40;;;;;;;28.88;52.01;98340.09;4950335;28;20052;-66
2023/06/01 08:31:41;;;;;;;14.07;6.30;;;;;;;28.81;53.83;98331.56;4949863;28;20741;-65
2023/06/01 08:34:10;;;;;;;8.68;5.90;;;;;;;28.57;54.71;98337.47;4949681;28;20043;-65
2023/06/01 08:36:39;;;;;;;9.48;6.25;;;;;;;28.44;57.14;98337.59;4949530;28;20079;-64
2023/06/01 08:39:25;;;;;;;14.45;6.50;;;;;;;28.23;57.29;98326.50;4948973;28;20356;-64
2023/06/01 08:42:45;;;;;;;16.52;6.93;;;;;;;27.95;57.37;98331.34;4966821;28;20053;-64
2023/06/01 08:45:15;;;;;;;11.88;6.93;;;;;;;27.66;56.71;98326.41;4883639;29;20690;-63
2023/06/01 08:47:46;;;;;;;10.32;6.95;;;;;;;27.60;58.09;98324.94;4946483;29;20098;-64
2023/06/01 08:50:17;;;;;;;10.77;6.90;;;;;;;27.41;58.16;98323.50;4943753;29;20066;-63
2023/06/01 08:52:47;;;;;;;15.38;7.55;;;;;;;27.34;59.68;98320.44;4954169;28;20817;-62
2023/06/01 08:55:17;;;;;;;12.48;6.72;;;;;;;27.32;60.23;98317.22;4958012;28;20055;-62
2023/06/01 08:57:46;;;;;;;12.57;6.78;;;;;;;27.31;59.88;98305.53;4957302;28;20609;-63
2023/06/01 09:00:17;;;;;;;13.88;7.40;;;;;;;27.36;60.26;98308.13;4956314;28;20043;-61
2023/06/01 09:02:49;;;;;;;14.40;7.00;;;;;;;27.40;61.31;98303.66;4957661;28;20057;-65
2023/06/01 09:05:18;;;;;;;15.98;5.85;;;;;;;27.44;58.77;98309.31;4958297;28;20051;-65
2023/06/01 09:07:49;;;;;;;11.80;5.35;;;;;;;27.48;59.97;98300.25;4959669;28;20402;-63
2023/06/01 09:10:25;;;;;;;10.60;5.00;;;;;;;27.58;59.65;98299.16;4944241;29;20345;-65
2023/06/01 09:12:55;;;;;;;17.42;4.93;;;;;;;27.65;57.91;98289.44;4957191;28;20370;-64
2023/06/01 09:15:25;;;;;;;9.50;4.75;;;;;;;27.73;58.08;98295.22;4958296;28;20042;-63
2023/06/01 09:18:06;;;;;;;6.30;3.95;;;;;;;27.76;58.34;98289.13;4956680;28;20050;-64
2023/06/01 09:20:38;;;;;;;8.98;4.35;;;;;;;27.69;57.81;98290.41;4954947;28;20051;-63
2023/06/01 09:23:08;;;;;;;8.10;4.15;;;;;;;27.66;58.44;98285.59;4941257;28;20487;-65
2023/06/01 09:25:38;;;;;;;7.63;4.57;;;;;;;27.61;60.99;98280.31;4953379;28;20043;-64
2023/06/01 09:28:07;;;;;;;7.95;3.78;;;;;;;27.53;57.22;98278.31;4949209;28;20485;-65
2023/06/01 09:30:42;;;;;;;10.27;3.90;;;;;;;27.47;59.58;98271.41;4948996;28;20419;-65
2023/06/01 09:33:16;;;;;;;10.95;4.03;;;;;;;27.44;60.20;98263.06;4938982;28;20082;-64
2023/06/01 09:35:50;;;;;;;9.88;4.03;;;;;;;27.37;61.22;98259.97;4944846;28;20043;-64
2023/06/01 09:38:24;;;;;;;8.18;4.00;;;;;;;27.35;59.33;98267.66;4961838;28;20046;-66
2023/06/01 09:41:03;;;;;;;6.60;3.45;;;;;;;27.29;60.41;98266.19;4960017;28;20047;-63
2023/06/01 09:43:37;;;;;;;6.70;3.97;;;;;;;27.28;61.42;98270.81;4954955;28;20070;-64
2023/06/01 09:46:09;;;;;;;6.22;3.50;;;;;;;27.23;61.31;98260.06;4941678;28;20054;-63
2023/06/01 09:48:38;;;;;;;8.73;3.50;;;;;;;27.20;62.87;98266.13;4956502;28;20047;-65
2023/06/01 09:51:30;;;;;;;6.78;3.17;;;;;;;27.15;62.77;98272.50;4955999;28;20059;-63
2023/06/01 09:54:02;;;;;;;15.48;3.70;;;;;;;27.10;61.57;98264.47;4951472;28;20051;-64
2023/06/01 09:56:44;;;;;;;7.38;3.42;;;;;;;27.04;63.43;98256.75;4949042;28;20054;-64
2023/06/01 09:59:14;;;;;;;12.23;3.90;;;;;;;27.09;62.71;98260.13;4955522;28;20043;-64
2023/06/01 10:01:48;;;;;;;7.68;3.80;;;;;;;27.07;61.55;98261.56;4937560;28;20423;-66
2023/06/01 10:04:22;;;;;;;8.73;4.28;;;;;;;27.12;61.92;98264.16;4942374;28;20050;-62
2023/06/01 10:06:56;;;;;;;6.82;3.90;;;;;;;27.11;62.61;98254.41;4957877;28;20046;-63
2023/06/01 10:09:26;;;;;;;9.93;4.38;;;;;;;27.18;63.09;98261.00;4953752;28;20054;-62
2023/06/01 10:11:56;;;;;;;11.85;3.90;;;;;;;27.31;61.87;98262.00;4958058;28;20050;-67
2023/06/01 10:14:26;;;;;;;8.65;4.38;;;;;;;27.39;61.87;98272.16;4958648;28;20051;-68
2023/06/01 10:16:55;;;;;;;9.63;3.88;;;;;;;27.41;61.43;98271.84;4956581;28;20054;-64
2023/06/01 10:19:25;;;;;;;7.10;3.85;;;;;;;27.42;63.72;98268.81;4957994;28;20110;-64
2023/06/01 10:21:57;;;;;;;7.82;3.65;;;;;;;27.39;63.21;98277.59;4951707;28;20047;-65
2023/06/01 10:24:28;;;;;;;8.15;4.05;;;;;;;27.45;61.27;98273.63;4955767;28;20055;-60
2023/06/01 10:27:36;;;;;;;21.10;5.15;;;;;;;27.42;61.49;98276.97;4956183;28;20042;-63
2023/06/01 10:30:09;;;;;;;12.73;6.90;;;;;;;27.39;62.54;98279.53;4879770;29;20053;-63
2023/06/01 10:32:38;;;;;;;15.13;8.52;;;;;;;27.32;62.55;98277.22;4879342;29;20572;-68
2023/06/01 10:35:10;;;;;;;15.43;8.25;;;;;;;27.20;62.57;98282.44;4925726;28;20059;-65
2023/06/01 10:37:39;;;;;;;13.32;8.05;;;;;;;27.14;64.08;98279.03;4963290;28;20486;-65
2023/06/01 10:40:24;;;;;;;15.82;9.43;;;;;;;26.97;63.35;98275.41;4969377;28;20053;-61
2023/06/01 10:42:54;;;;;;;15.80;10.10;;;;;;;26.92;63.71;98289.13;4967651;28;20129;-67
2023/06/01 10:45:35;;;;;;;13.23;9.75;;;;;;;26.88;65.64;98290.84;4958849;28;20873;-63
2023/06/01 10:48:08;;;;;;;15.25;9.23;;;;;;;26.80;65.12;98290.47;4941251;28;20083;-63
2023/06/01 10:50:39;;;;;;;15.20;8.32;;;;;;;26.78;66.22;98279.06;4970370;28;20046;-64
2023/06/01 10:53:37;;;;;;;18.85;10.10;;;;;;;26.67;64.46;98285.88;4962800;28;20047;-60
2023/06/01 10:56:21;;;;;;;19.35;9.90;;;;;;;26.64;63.74;98293.84;4943634;28;20039;-68
2023/06/01 10:59:11;;;;;;;14.38;8.85;;;;;;;26.53;64.37;98279.69;4950847;29;20181;-62
2023/06/01 11:01:47;;;;;;;16.75;9.32;;;;;;;26.52;64.14;98269.09;4956634;28;20074;-65
2023/06/01 11:04:36;;;;;;;14.63;7.80;;;;;;;26.54;63.94;98258.75;4961456;28;20047;-65
2023/06/01 11:07:39;;;;;;;17.92;8.93;;;;;;;26.55;64.31;98250.31;4959254;28;20058;-68
2023/06/01 11:10:09;;;;;;;16.63;8.20;;;;;;;26.51;64.51;98240.38;4959269;28;20538;-62
2023/06/01 11:13:17;;;;;;;16.15;8.07;;;;;;;26.47;64.09;98244.78;4961277;28;20174;-60
2023/06/01 11:16:24;;;;;;;;;;;;;;;;;;;;;
2023/06/01 11:18:58;;;;;;;17.35;8.27;;;;;;;26.55;64.98;98231.28;4938085;28;20055;-61
2023/06/01 11:21:39;;;;;;;13.90;8.38;;;;;;;26.59;64.82;98231.47;4957234;28;20097;-61
2023/06/01 11:24:18;;;;;;;13.88;8.38;;;;;;;26.56;65.34;98223.91;4956210;28;20059;-63
2023/06/01 11:26:51;;;;;;;12.55;7.80;;;;;;;26.58;64.85;98219.00;4959445;28;20099;-63
2023/06/01 11:29:25;;;;;;;11.65;7.43;;;;;;;26.55;65.23;98217.72;4938394;28;20062;-63
2023/06/01 11:31:56;;;;;;;13.55;7.70;;;;;;;26.54;65.97;98210.66;4956228;28;20051;-64
2023/06/01 11:34:41;;;;;;;18.08;8.85;;;;;;;26.55;65.95;98220.44;4957359;28;20051;-63
2023/06/01 11:37:14;;;;;;;11.48;7.60;;;;;;;26.63;67.53;98216.97;4955748;28;20074;-63
2023/06/01 11:39:45;;;;;;;15.55;7.85;;;;;;;26.56;65.80;98216.56;4957460;28;20085;-63
2023/06/01 11:42:20;;;;;;;14.75;7.90;;;;;;;26.49;66.05;98215.41;4959278;28;20044;-63
2023/06/01 11:45:00;;;;;;;15.98;7.22;;;;;;;26.49;66.84;98216.22;4942281;28;20145;-64
2023/06/01 11:47:31;;;;;;;13.07;7.78;;;;;;;26.40;65.27;98223.50;4939856;28;20047;-63
2023/06/01 11:50:00;;;;;;;13.70;7.15;;;;;;;26.36;65.58;98228.75;4955054;28;20146;-63
2023/06/01 11:52:30;;;;;;;13.15;7.22;;;;;;;26.40;67.23;98228.91;4958292;28;20071;-62
2023/06/01 11:55:04;;;;;;;17.23;7.78;;;;;;;26.46;67.37;98238.56;4956490;28;20130;-63